createdAt,value
2018-06-14T00:02:16.863Z,6.80
2018-06-14T00:07:37.486Z,6.40
2018-06-14T00:10:11.993Z,6.70
2018-06-14T00:12:51.060Z,6.13
2018-06-14T00:15:28.962Z,7.27
2018-06-14T00:17:59.156Z,6.30
2018-06-14T00:20:33.322Z,6.17
2018-06-14T00:23:09.531Z,6.20
2018-06-14T00:25:44.522Z,7.10
2018-06-14T00:28:18.135Z,7.40
2018-06-14T00:30:58.040Z,6.43
2018-06-14T00:33:31.910Z,6.27
2018-06-14T00:36:01.997Z,7.17
2018-06-14T00:38:35.648Z,6.83
2018-06-14T00:41:07.063Z,7.30
2018-06-14T00:43:37.081Z,6.10
2018-06-14T00:46:11.321Z,6.60
2018-06-14T00:48:48.332Z,6.27
2018-06-14T00:51:22.619Z,7.50
2018-06-14T00:53:54.490Z,5.90
2018-06-14T00:56:29.651Z,6.87
2018-06-14T00:59:07.236Z,7.30
2018-06-14T01:01:39.000Z,6.20
2018-06-14T01:04:14.154Z,7.37
2018-06-14T01:06:46.018Z,6.00
2018-06-14T01:09:21.902Z,6.73
2018-06-14T01:11:57.846Z,6.57
2018-06-14T01:14:32.686Z,6.57
2018-06-14T01:17:06.755Z,7.60
2018-06-14T01:19:41.511Z,7.67
2018-06-14T01:24:51.529Z,7.30
2018-06-14T01:30:44.682Z,6.80
2018-06-14T01:33:19.228Z,6.00
2018-06-14T01:36:00.752Z,6.67
2018-06-14T01:38:32.557Z,6.90
2018-06-14T01:41:04.406Z,6.93
2018-06-14T01:43:38.066Z,7.40
2018-06-14T01:46:08.106Z,6.47
2018-06-14T01:48:42.407Z,7.47
2018-06-14T01:51:17.882Z,6.83
2018-06-14T01:53:55.718Z,7.20
2018-06-14T01:56:32.144Z,5.70
2018-06-14T01:59:08.832Z,6.70
2018-06-14T02:01:42.465Z,7.40
2018-06-14T02:04:18.643Z,6.33
2018-06-14T02:09:31.592Z,6.53
2018-06-14T02:12:04.276Z,6.60
2018-06-14T02:14:36.561Z,7.30
2018-06-14T02:17:09.834Z,6.87
2018-06-14T02:19:54.541Z,7.97
2018-06-14T02:22:31.116Z,7.60
2018-06-14T02:25:02.095Z,7.83
2018-06-14T02:27:34.836Z,6.77
2018-06-14T02:30:06.508Z,7.00
2018-06-14T02:32:39.969Z,7.40
2018-06-14T02:35:15.603Z,8.53
2018-06-14T02:37:53.038Z,7.45
2018-06-14T02:40:32.581Z,8.23
2018-06-14T02:43:07.825Z,7.23
2018-06-14T02:45:46.705Z,6.77
2018-06-14T02:48:24.411Z,7.10
2018-06-14T02:50:56.231Z,7.30
2018-06-14T02:53:28.722Z,6.87
2018-06-14T02:56:03.972Z,6.63
2018-06-14T02:58:36.758Z,7.40
2018-06-14T03:01:09.903Z,7.17
2018-06-14T03:03:42.534Z,9.53
2018-06-14T03:06:22.567Z,8.40
2018-06-14T03:09:00.372Z,7.87
2018-06-14T03:11:33.641Z,9.07
2018-06-14T03:14:08.517Z,8.20
2018-06-14T03:16:43.337Z,7.60
2018-06-14T03:19:16.330Z,8.30
2018-06-14T03:21:51.671Z,10.37
2018-06-14T03:24:25.754Z,7.80
2018-06-14T03:26:59.585Z,8.20
2018-06-14T03:29:35.624Z,8.83
2018-06-14T03:32:09.334Z,8.53
2018-06-14T03:34:40.702Z,7.80
2018-06-14T03:37:18.044Z,7.13
2018-06-14T03:39:57.905Z,8.67
2018-06-14T03:42:30.226Z,9.63
2018-06-14T03:45:02.162Z,8.43
2018-06-14T03:47:36.011Z,7.80
2018-06-14T03:50:08.809Z,9.03
2018-06-14T03:52:44.062Z,8.90
2018-06-14T03:55:17.850Z,8.17
2018-06-14T03:57:53.792Z,8.75
2018-06-14T04:00:33.740Z,8.13
2018-06-14T04:03:04.984Z,7.20
2018-06-14T04:05:39.007Z,8.57
2018-06-14T04:08:19.079Z,8.53
2018-06-14T04:10:56.181Z,8.13
2018-06-14T04:13:36.220Z,8.03
2018-06-14T04:16:08.546Z,7.30
2018-06-14T04:18:50.387Z,7.93
2018-06-14T04:21:22.386Z,8.87
2018-06-14T04:23:56.401Z,8.67
2018-06-14T04:26:32.463Z,8.47
2018-06-14T04:29:07.425Z,7.47
2018-06-14T04:31:45.734Z,6.13
2018-06-14T04:34:25.401Z,7.87
2018-06-14T04:37:01.211Z,7.57
2018-06-14T04:39:45.534Z,8.30
2018-06-14T04:42:21.275Z,7.47
2018-06-14T04:44:56.569Z,7.07
2018-06-14T04:47:34.874Z,6.03
2018-06-14T04:50:14.479Z,6.93
2018-06-14T04:52:46.627Z,6.50
2018-06-14T04:55:29.362Z,7.33
2018-06-14T04:58:10.900Z,7.00
2018-06-14T05:03:39.726Z,7.30
2018-06-14T05:11:50.217Z,6.17
2018-06-14T05:15:01.424Z,7.07
2018-06-14T05:17:53.222Z,7.17
2018-06-14T05:29:16.337Z,8.50
2018-06-14T05:32:05.317Z,7.93
2018-06-14T05:35:00.812Z,6.83
2018-06-14T05:43:47.268Z,6.90
2018-06-14T05:46:25.714Z,7.40
2018-06-14T05:49:07.385Z,7.37
2018-06-14T05:52:04.242Z,6.70
2018-06-14T05:54:55.988Z,6.43
2018-06-14T05:57:43.151Z,7.07
2018-06-14T06:00:23.494Z,8.30
2018-06-14T06:03:17.060Z,7.50
2018-06-14T06:09:04.009Z,7.30
2018-06-14T06:11:45.281Z,6.20
2018-06-14T06:14:35.309Z,6.63
2018-06-14T06:17:19.957Z,7.27
2018-06-14T06:20:06.423Z,7.13
2018-06-14T06:47:43.164Z,7.47
2018-06-14T06:50:21.835Z,7.40
2018-06-14T06:59:33.903Z,8.83
2018-06-14T07:14:07.674Z,9.33
2018-06-14T07:16:52.161Z,8.63
2018-06-14T07:22:42.271Z,9.00
2018-06-14T07:25:28.612Z,8.77
2018-06-14T07:28:13.681Z,10.10
2018-06-14T07:30:50.844Z,11.37
2018-06-14T07:33:37.738Z,10.23
2018-06-14T07:39:29.301Z,11.00
2018-06-14T07:42:33.446Z,9.73
2018-06-14T07:45:35.071Z,7.13
2018-06-14T07:48:20.257Z,6.67
2018-06-14T07:50:59.534Z,8.90
2018-06-14T07:53:54.673Z,9.17
2018-06-14T07:56:33.510Z,9.27
2018-06-14T07:59:15.947Z,7.60
2018-06-14T08:58:04.662Z,4.60
2018-06-14T09:00:50.491Z,4.20
2018-06-14T09:09:36.804Z,4.90
2018-06-14T09:12:16.429Z,5.70
2018-06-14T09:15:11.619Z,5.77
2018-06-14T09:18:00.826Z,3.40
2018-06-14T09:20:57.428Z,3.40
2018-06-14T09:23:45.070Z,3.63
2018-06-14T09:26:27.587Z,3.37
2018-06-14T09:29:11.454Z,3.07
2018-06-14T09:31:56.396Z,3.17
2018-06-14T09:35:04.237Z,3.83
2018-06-14T09:40:42.890Z,3.50
2018-06-14T09:43:30.860Z,3.27
2018-06-14T09:46:05.393Z,4.23
2018-06-14T09:51:28.824Z,4.07
2018-06-14T09:54:22.250Z,4.37
2018-06-14T09:56:59.908Z,6.60
2018-06-14T09:59:52.900Z,4.20
2018-06-14T10:02:41.637Z,3.80
2018-06-14T10:05:34.647Z,4.43
2018-06-14T10:08:18.624Z,4.10
2018-06-14T10:11:06.801Z,3.80
2018-06-14T10:25:48.262Z,3.00
2018-06-14T10:38:30.916Z,3.20
2018-06-14T10:41:14.344Z,3.20
2018-06-14T10:55:28.012Z,3.17
2018-06-14T10:58:16.578Z,3.13
2018-06-14T11:01:03.805Z,3.10
2018-06-14T12:42:28.553Z,2.97
2018-06-14T12:45:12.437Z,2.67
2018-06-14T12:47:54.033Z,3.17
2018-06-14T12:50:28.710Z,3.07
2018-06-14T12:53:09.439Z,3.60
2018-06-14T12:56:10.421Z,4.80
2018-06-14T12:58:56.291Z,4.33
2018-06-14T13:01:47.138Z,3.30
2018-06-14T13:10:06.889Z,4.60
2018-06-14T13:15:59.208Z,3.07
2018-06-14T13:20:52.089Z,3.50
2018-06-14T23:52:18.927Z,19.70
2018-06-14T23:55:12.214Z,20.08
2018-06-14T23:57:45.272Z,18.90
